createdAt,value
2023-05-05T00:00:04.233Z,105.86
2023-05-05T00:01:04.274Z,110.29
2023-05-05T00:02:04.288Z,110.20
2023-05-05T00:03:04.335Z,111.99
2023-05-05T00:04:04.269Z,111.04
2023-05-05T00:05:04.258Z,110.88
2023-05-05T00:06:04.310Z,107.23
2023-05-05T00:07:04.309Z,104.32
2023-05-05T00:08:04.264Z,101.82
2023-05-05T00:09:04.300Z,104.62
2023-05-05T00:10:04.240Z,102.93
2023-05-05T00:11:04.283Z,106.88
2023-05-05T00:12:04.279Z,109.74
2023-05-05T00:13:04.282Z,110.39
2023-05-05T00:14:04.261Z,107.82
2023-05-05T00:15:04.247Z,107.36
2023-05-05T00:16:04.310Z,111.06
2023-05-05T00:17:04.401Z,109.43
2023-05-05T00:18:04.332Z,110.44
2023-05-05T00:19:04.265Z,111.74
2023-05-05T00:20:04.295Z,113.00
2023-05-05T00:21:04.311Z,107.25
2023-05-05T00:22:04.360Z,107.29
2023-05-05T00:23:04.265Z,109.36
2023-05-05T00:24:04.278Z,110.51
2023-05-05T00:25:04.249Z,112.08
2023-05-05T00:26:04.266Z,110.02
2023-05-05T00:27:04.316Z,110.17
2023-05-05T00:28:04.250Z,108.13
2023-05-05T00:29:04.288Z,107.54
2023-05-05T00:30:04.265Z,107.76
2023-05-05T00:31:04.287Z,106.93
2023-05-05T00:32:04.283Z,107.81
2023-05-05T00:33:04.399Z,107.47
2023-05-05T00:34:04.273Z,106.86
2023-05-05T00:35:04.246Z,107.20
2023-05-05T00:36:04.281Z,108.06
2023-05-05T00:37:04.266Z,106.15
2023-05-05T00:38:04.352Z,106.49
2023-05-05T00:39:04.251Z,105.32
2023-05-05T00:40:04.269Z,107.93
2023-05-05T00:41:04.278Z,105.83
2023-05-05T00:42:04.310Z,105.53
2023-05-05T00:43:04.288Z,106.46
2023-05-05T00:44:04.255Z,101.59
2023-05-05T00:45:04.286Z,101.62
2023-05-05T00:46:04.304Z,102.47
2023-05-05T00:47:04.438Z,106.01
2023-05-05T00:48:04.325Z,107.88
2023-05-05T00:49:04.311Z,108.28
2023-05-05T00:50:04.302Z,110.94
2023-05-05T00:51:04.268Z,112.30
2023-05-05T00:52:04.251Z,109.63
2023-05-05T00:53:04.258Z,106.34
2023-05-05T00:54:04.253Z,105.82
2023-05-05T00:55:04.245Z,111.40
2023-05-05T00:56:04.238Z,110.38
2023-05-05T00:57:04.268Z,108.97
2023-05-05T00:58:04.396Z,112.85
2023-05-05T00:59:04.264Z,107.55
2023-05-05T01:00:04.250Z,105.81
2023-05-05T01:01:04.257Z,106.08
2023-05-05T01:02:04.386Z,105.96
2023-05-05T01:03:04.377Z,108.48
2023-05-05T01:04:04.271Z,106.99
2023-05-05T01:05:04.282Z,108.77
2023-05-05T01:06:04.362Z,109.36
2023-05-05T01:07:04.289Z,110.16
2023-05-05T01:08:04.253Z,112.47
2023-05-05T01:09:04.276Z,109.73
2023-05-05T01:10:18.088Z,106.80
2023-05-05T01:11:05.280Z,106.95
2023-05-05T01:12:04.265Z,107.42
2023-05-05T01:13:04.287Z,108.07
2023-05-05T01:14:04.258Z,109.22
2023-05-05T01:15:04.239Z,108.40
2023-05-05T01:16:04.227Z,112.47
2023-05-05T01:17:04.201Z,112.07
2023-05-05T01:18:04.350Z,111.71
2023-05-05T01:19:04.208Z,108.96
2023-05-05T01:20:04.210Z,108.31
2023-05-05T01:21:04.209Z,110.18
2023-05-05T01:22:04.168Z,112.31
2023-05-05T01:23:04.188Z,113.50
2023-05-05T01:24:04.161Z,115.65
2023-05-05T01:25:04.149Z,114.66
2023-05-05T01:26:04.154Z,110.89
2023-05-05T01:27:04.125Z,114.20
2023-05-05T01:28:04.149Z,111.00
2023-05-05T01:29:04.182Z,111.16
2023-05-05T01:30:04.143Z,112.44
2023-05-05T01:31:04.139Z,113.42
2023-05-05T01:32:04.181Z,115.04
2023-05-05T01:33:04.140Z,112.64
2023-05-05T01:34:04.090Z,113.07
2023-05-05T01:35:04.189Z,115.88
2023-05-05T01:36:04.066Z,115.89
2023-05-05T01:37:04.058Z,116.42
2023-05-05T01:38:04.080Z,114.09
2023-05-05T01:39:04.119Z,113.35
2023-05-05T01:40:04.140Z,112.90
2023-05-05T01:41:04.100Z,113.39
2023-05-05T01:42:04.075Z,112.03
2023-05-05T01:43:04.065Z,110.60
2023-05-05T01:44:04.083Z,112.21
2023-05-05T01:45:04.100Z,110.06
2023-05-05T01:46:04.135Z,113.72
2023-05-05T01:47:04.076Z,114.95
2023-05-05T01:48:04.143Z,113.77
2023-05-05T01:49:04.085Z,110.36
2023-05-05T01:50:04.095Z,107.97
2023-05-05T01:51:04.106Z,109.25
2023-05-05T01:52:04.110Z,110.97
2023-05-05T01:53:04.092Z,112.87
2023-05-05T01:54:04.113Z,111.37
2023-05-05T01:55:04.150Z,113.43
2023-05-05T01:56:04.093Z,112.66
2023-05-05T01:57:04.113Z,111.45
2023-05-05T01:58:04.330Z,113.54
2023-05-05T01:59:04.099Z,112.38
2023-05-05T02:00:04.114Z,112.23
2023-05-05T02:01:04.143Z,110.03
2023-05-05T02:02:04.166Z,110.94
2023-05-05T02:03:04.232Z,112.75
2023-05-05T02:04:04.100Z,114.00
2023-05-05T02:05:04.108Z,116.79
2023-05-05T02:06:04.118Z,114.38
2023-05-05T02:07:04.104Z,116.53
2023-05-05T02:08:04.135Z,115.18
2023-05-05T02:09:04.159Z,114.02
2023-05-05T02:10:04.105Z,114.18
2023-05-05T02:11:04.115Z,113.84
2023-05-05T02:12:04.126Z,114.17
2023-05-05T02:13:04.411Z,111.46
2023-05-05T02:14:04.223Z,111.09
2023-05-05T02:15:04.121Z,111.78
2023-05-05T02:16:04.145Z,113.23
2023-05-05T02:17:04.140Z,113.15
2023-05-05T02:18:04.161Z,111.29
2023-05-05T02:19:04.126Z,112.95
2023-05-05T02:20:04.150Z,112.01
2023-05-05T02:21:04.157Z,112.87
2023-05-05T02:22:04.136Z,117.41
2023-05-05T02:23:04.170Z,114.90
2023-05-05T02:24:04.149Z,118.91
2023-05-05T02:25:04.141Z,115.99
2023-05-05T02:26:04.146Z,116.78
2023-05-05T02:27:04.139Z,117.34
2023-05-05T02:28:04.149Z,116.84
2023-05-05T02:29:04.203Z,114.60
2023-05-05T02:30:04.157Z,116.59
2023-05-05T02:31:04.225Z,116.14
2023-05-05T02:32:04.180Z,117.26
2023-05-05T02:33:04.166Z,115.86
2023-05-05T02:34:04.178Z,118.72
2023-05-05T02:35:04.184Z,112.94
2023-05-05T02:36:04.198Z,115.17
2023-05-05T02:37:04.156Z,116.19
2023-05-05T02:38:04.200Z,116.96
2023-05-05T02:39:04.179Z,115.28
2023-05-05T02:40:04.225Z,113.19
2023-05-05T02:41:04.194Z,115.21
2023-05-05T02:42:04.198Z,115.50
2023-05-05T02:43:04.226Z,115.32
2023-05-05T02:44:04.234Z,117.39
2023-05-05T02:45:04.203Z,115.61
2023-05-05T02:46:04.279Z,113.57
2023-05-05T02:47:04.237Z,114.09
2023-05-05T02:48:04.359Z,116.95
2023-05-05T02:49:04.249Z,111.62
2023-05-05T02:50:04.248Z,113.96
2023-05-05T02:51:04.287Z,117.76
2023-05-05T02:52:04.249Z,115.96
2023-05-05T02:53:04.283Z,113.24
2023-05-05T02:54:04.328Z,114.33
2023-05-05T02:55:04.289Z,116.64
2023-05-05T02:56:04.290Z,116.31
2023-05-05T02:57:04.294Z,116.30
2023-05-05T02:58:04.376Z,116.51
2023-05-05T02:59:04.336Z,118.80
2023-05-05T03:00:04.376Z,116.70
2023-05-05T03:01:04.402Z,118.12
2023-05-05T03:02:04.417Z,116.54
2023-05-05T03:03:04.443Z,117.01
2023-05-05T03:04:04.407Z,117.34
2023-05-05T03:05:04.426Z,118.72
2023-05-05T03:06:04.444Z,113.42
2023-05-05T03:07:04.454Z,117.40
2023-05-05T03:08:04.461Z,118.97
2023-05-05T03:09:04.478Z,118.70
2023-05-05T03:10:04.504Z,116.66
2023-05-05T03:11:04.515Z,116.53
2023-05-05T03:12:04.491Z,115.32
2023-05-05T03:13:04.529Z,113.46
2023-05-05T03:14:04.492Z,115.69
2023-05-05T03:15:04.534Z,117.58
2023-05-05T03:16:04.571Z,116.08
2023-05-05T03:17:04.507Z,115.82
2023-05-05T03:18:04.569Z,116.25
2023-05-05T03:19:04.545Z,117.24
2023-05-05T03:20:04.558Z,116.48
2023-05-05T03:21:04.567Z,114.86
2023-05-05T03:22:04.537Z,115.91
2023-05-05T03:23:04.566Z,116.60
2023-05-05T03:24:04.540Z,113.05
2023-05-05T03:25:04.544Z,115.42
2023-05-05T03:26:04.561Z,118.12
2023-05-05T03:27:04.568Z,117.86
2023-05-05T03:28:04.590Z,118.84
2023-05-05T03:29:04.591Z,118.11
2023-05-05T03:30:04.652Z,118.70
2023-05-05T03:31:04.579Z,116.79
2023-05-05T03:32:04.670Z,118.28
2023-05-05T03:33:04.923Z,118.42
2023-05-05T03:34:04.603Z,117.54
2023-05-05T03:35:04.648Z,117.95
2023-05-05T03:36:04.628Z,119.60
2023-05-05T03:37:04.637Z,119.44
2023-05-05T03:38:04.664Z,117.74
2023-05-05T03:39:04.621Z,117.66
2023-05-05T03:40:04.658Z,118.63
2023-05-05T03:41:04.661Z,117.35
2023-05-05T03:42:04.689Z,117.46
2023-05-05T03:43:04.669Z,118.36
2023-05-05T03:44:04.661Z,120.32
2023-05-05T03:45:04.658Z,117.43
2023-05-05T03:46:04.727Z,121.15
2023-05-05T03:47:04.675Z,120.01
2023-05-05T03:48:04.824Z,120.36
2023-05-05T03:49:04.660Z,117.02
2023-05-05T03:50:04.700Z,117.43
2023-05-05T03:51:04.691Z,118.47
2023-05-05T03:52:04.668Z,116.54
2023-05-05T03:53:04.680Z,120.92
2023-05-05T03:54:04.690Z,117.45
2023-05-05T03:55:04.718Z,118.59
2023-05-05T03:56:04.741Z,119.15
2023-05-05T03:57:04.726Z,115.66
2023-05-05T03:58:04.725Z,118.88
2023-05-05T03:59:04.755Z,118.41
2023-05-05T04:00:04.785Z,119.72
2023-05-05T04:01:04.752Z,118.35
2023-05-05T04:02:04.859Z,119.81
2023-05-05T04:03:04.971Z,121.25
2023-05-05T04:04:04.813Z,121.52
2023-05-05T04:05:04.794Z,116.55
2023-05-05T04:06:04.778Z,117.02
2023-05-05T04:07:04.762Z,117.29
2023-05-05T04:08:04.810Z,117.20
2023-05-05T04:09:04.774Z,119.39
2023-05-05T04:10:04.806Z,118.82
2023-05-05T04:11:04.820Z,118.92
2023-05-05T04:12:04.931Z,121.47
2023-05-05T04:13:04.914Z,120.20
2023-05-05T04:14:04.827Z,120.19
2023-05-05T04:15:04.835Z,118.76
2023-05-05T04:16:04.869Z,119.41
2023-05-05T04:17:04.843Z,121.94
2023-05-05T04:18:04.918Z,120.19
2023-05-05T04:19:04.898Z,121.42
2023-05-05T04:20:04.880Z,123.47
2023-05-05T04:21:04.903Z,120.53
2023-05-05T04:22:04.947Z,120.66
2023-05-05T04:23:04.947Z,121.47
2023-05-05T04:24:04.955Z,122.57
2023-05-05T04:25:05.030Z,119.18
2023-05-05T04:26:04.991Z,120.22
2023-05-05T04:27:04.973Z,121.82
2023-05-05T04:28:05.397Z,125.27
2023-05-05T04:29:05.054Z,121.37
2023-05-05T04:30:05.147Z,123.10
2023-05-05T04:31:05.189Z,124.00
2023-05-05T04:32:05.053Z,121.76
2023-05-05T04:33:05.090Z,121.84
2023-05-05T04:34:05.123Z,125.24
2023-05-05T04:35:05.103Z,124.91
2023-05-05T04:36:05.097Z,126.23
2023-05-05T04:37:05.102Z,123.53
2023-05-05T04:38:05.135Z,122.15
2023-05-05T04:39:05.159Z,123.06
2023-05-05T04:40:05.239Z,123.64
2023-05-05T04:41:05.243Z,124.18
2023-05-05T04:42:05.210Z,124.59
2023-05-05T04:43:05.225Z,126.16
2023-05-05T04:44:05.202Z,126.56
2023-05-05T04:45:05.207Z,125.60
2023-05-05T04:46:05.403Z,125.80
2023-05-05T04:47:05.241Z,126.52
2023-05-05T04:48:05.280Z,126.36
2023-05-05T04:49:05.232Z,127.49
2023-05-05T04:50:05.298Z,126.40
2023-05-05T04:51:05.339Z,125.78
2023-05-05T04:52:05.286Z,126.74
2023-05-05T04:53:05.289Z,127.20
2023-05-05T04:54:05.305Z,127.44
2023-05-05T04:55:05.284Z,128.43
2023-05-05T04:56:05.354Z,127.30
2023-05-05T04:57:05.324Z,128.88
2023-05-05T04:58:05.356Z,130.57
2023-05-05T04:59:05.384Z,131.50
2023-05-05T05:00:05.613Z,130.26
2023-05-05T05:01:05.403Z,131.40
2023-05-05T05:02:05.473Z,132.97
2023-05-05T05:03:05.586Z,132.76
2023-05-05T05:04:05.510Z,133.77
2023-05-05T05:05:05.470Z,134.29
2023-05-05T05:06:05.485Z,132.54
2023-05-05T05:07:05.487Z,136.58
2023-05-05T05:08:05.514Z,135.90
2023-05-05T05:09:05.512Z,134.28
2023-05-05T05:10:05.624Z,137.91
2023-05-05T05:11:05.608Z,137.67
2023-05-05T05:12:05.574Z,138.27
2023-05-05T05:13:05.659Z,137.17
2023-05-05T05:14:05.588Z,138.30
2023-05-05T05:15:05.623Z,138.98
2023-05-05T05:16:05.688Z,138.66
2023-05-05T05:17:05.625Z,138.16
2023-05-05T05:18:05.918Z,139.62
2023-05-05T05:19:05.683Z,140.78
2023-05-05T05:20:05.710Z,139.24
2023-05-05T05:21:05.769Z,140.65
2023-05-05T05:22:05.744Z,140.70
2023-05-05T05:23:05.841Z,140.44
2023-05-05T05:24:05.816Z,139.64
2023-05-05T05:25:05.808Z,139.99
2023-05-05T05:26:05.817Z,141.21
2023-05-05T05:27:07.328Z,139.60
2023-05-05T05:28:10.517Z,141.89
2023-05-05T05:29:06.794Z,142.05
2023-05-05T05:30:05.965Z,142.20
2023-05-05T05:31:05.827Z,142.06
2023-05-05T05:32:05.829Z,142.63
2023-05-05T05:33:05.840Z,147.05
2023-05-05T05:34:05.798Z,150.99
2023-05-05T05:35:05.755Z,159.58
2023-05-05T05:36:05.780Z,164.57
2023-05-05T05:37:05.723Z,165.06
2023-05-05T05:38:05.723Z,162.50
2023-05-05T05:39:05.740Z,163.03
2023-05-05T05:40:05.777Z,165.81
2023-05-05T05:41:05.779Z,166.36
2023-05-05T05:42:05.707Z,164.38
2023-05-05T05:43:05.877Z,167.51
2023-05-05T05:44:05.678Z,167.16
2023-05-05T05:45:05.817Z,168.05
2023-05-05T05:46:08.309Z,168.53
2023-05-05T05:47:05.901Z,169.15
2023-05-05T05:48:05.710Z,171.23
2023-05-05T05:49:05.660Z,167.57
2023-05-05T05:50:05.805Z,171.68
2023-05-05T05:51:05.785Z,173.76
2023-05-05T05:52:05.635Z,163.93
2023-05-05T05:53:05.665Z,163.59
2023-05-05T05:54:05.919Z,164.82
2023-05-05T05:55:05.734Z,165.08
2023-05-05T05:56:05.650Z,164.84
2023-05-05T05:57:05.621Z,168.59
2023-05-05T05:58:05.594Z,165.35
2023-05-05T05:59:05.590Z,165.72
2023-05-05T06:00:05.750Z,163.87
2023-05-05T06:01:05.663Z,161.71
2023-05-05T06:02:05.646Z,160.51
2023-05-05T06:03:05.778Z,160.43
2023-05-05T06:04:05.577Z,161.70
2023-05-05T06:05:05.542Z,162.76
2023-05-05T06:06:05.530Z,169.26
2023-05-05T06:07:05.967Z,171.80
2023-05-05T06:08:05.517Z,171.50
2023-05-05T06:09:05.926Z,172.15
2023-05-05T06:10:19.011Z,176.55
2023-05-05T06:11:06.507Z,176.90
2023-05-05T06:12:05.480Z,177.76
2023-05-05T06:13:05.571Z,180.84
2023-05-05T06:14:05.485Z,181.41
2023-05-05T06:15:05.475Z,182.05
2023-05-05T06:16:05.535Z,186.12
2023-05-05T06:17:05.459Z,186.65
2023-05-05T06:18:05.510Z,188.21
2023-05-05T06:19:05.486Z,184.08
2023-05-05T06:20:05.471Z,181.19
2023-05-05T06:21:05.433Z,182.29
2023-05-05T06:22:05.427Z,181.45
2023-05-05T06:23:05.473Z,179.03
2023-05-05T06:24:05.411Z,181.82
2023-05-05T06:25:05.934Z,180.09
2023-05-05T06:26:05.445Z,180.13
2023-05-05T06:27:05.451Z,175.01
2023-05-05T06:28:05.472Z,175.98
2023-05-05T06:29:05.976Z,175.48
2023-05-05T06:30:05.598Z,174.89
2023-05-05T06:31:05.534Z,176.62
2023-05-05T06:32:05.631Z,177.63
2023-05-05T06:33:05.705Z,176.01
2023-05-05T06:34:05.661Z,173.38
2023-05-05T06:35:05.649Z,166.78
2023-05-05T06:36:05.783Z,154.48
2023-05-05T06:37:05.846Z,142.70
2023-05-05T06:38:05.786Z,133.55
2023-05-05T06:39:05.944Z,126.88
2023-05-05T06:40:06.043Z,109.39
2023-05-05T06:41:05.948Z,103.21
2023-05-05T06:42:05.992Z,107.33
2023-05-05T06:43:05.967Z,99.20
2023-05-05T06:44:06.079Z,91.54
2023-05-05T06:45:06.072Z,70.56
2023-05-05T06:46:06.114Z,40.27
2023-05-05T06:47:06.343Z,39.77
2023-05-05T06:48:06.344Z,42.59
2023-05-05T06:49:06.249Z,40.44
2023-05-05T06:50:06.551Z,32.85
2023-05-05T06:51:06.304Z,29.93
2023-05-05T06:52:06.335Z,30.62
2023-05-05T06:53:06.372Z,26.86
2023-05-05T06:54:06.488Z,30.22
2023-05-05T06:55:06.960Z,29.65
2023-05-05T06:56:06.492Z,27.38
2023-05-05T06:57:06.545Z,32.56
2023-05-05T06:58:06.560Z,25.00
2023-05-05T06:59:06.637Z,24.33
2023-05-05T07:00:07.030Z,26.46
2023-05-05T07:01:06.760Z,25.54
2023-05-05T07:02:06.718Z,24.93
2023-05-05T07:03:06.752Z,26.73
2023-05-05T07:04:07.135Z,24.88
2023-05-05T07:05:06.796Z,25.00
2023-05-05T07:06:06.820Z,25.00
2023-05-05T07:07:06.867Z,25.82
2023-05-05T07:08:07.011Z,25.01
2023-05-05T07:09:06.958Z,25.00
2023-05-05T07:10:07.371Z,28.05
2023-05-05T07:11:07.037Z,25.00
2023-05-05T07:12:07.089Z,29.50
2023-05-05T07:13:07.143Z,28.40
2023-05-05T07:14:07.536Z,34.13
2023-05-05T07:15:19.396Z,29.27
2023-05-05T07:16:08.238Z,27.58
2023-05-05T07:17:07.192Z,21.51
2023-05-05T07:18:07.209Z,19.63
2023-05-05T07:19:07.556Z,16.25
2023-05-05T07:20:07.297Z,11.89
2023-05-05T07:21:07.151Z,25.57
2023-05-05T07:22:07.176Z,25.69
2023-05-05T07:23:07.247Z,23.82
2023-05-05T07:24:07.140Z,27.23
2023-05-05T07:25:07.124Z,24.47
2023-05-05T07:26:07.211Z,25.77
2023-05-05T07:27:07.219Z,27.00
2023-05-05T07:28:07.176Z,26.61
2023-05-05T07:29:07.966Z,27.54
2023-05-05T07:30:12.374Z,30.09
2023-05-05T07:31:08.429Z,30.18
2023-05-05T07:32:07.323Z,30.75
2023-05-05T07:33:07.295Z,30.80
2023-05-05T07:34:07.551Z,32.02
2023-05-05T07:35:07.350Z,39.37
2023-05-05T07:36:07.377Z,44.80
2023-05-05T07:37:07.268Z,39.51
2023-05-05T07:38:08.658Z,34.29
2023-05-05T07:39:07.331Z,33.56
2023-05-05T07:40:07.531Z,35.97
2023-05-05T07:41:07.369Z,40.22
2023-05-05T07:42:07.552Z,41.12
2023-05-05T07:43:07.528Z,39.30
2023-05-05T07:44:07.626Z,34.33
2023-05-05T07:45:07.597Z,33.94
2023-05-05T07:46:07.677Z,33.36
2023-05-05T07:47:07.736Z,40.51
2023-05-05T07:48:07.831Z,38.73
2023-05-05T07:49:07.824Z,36.03
2023-05-05T07:50:08.008Z,34.69
2023-05-05T07:51:08.023Z,35.69
2023-05-05T07:52:08.068Z,32.16
2023-05-05T07:53:14.559Z,34.61
2023-05-05T07:54:09.089Z,34.65
2023-05-05T07:55:08.099Z,34.67
2023-05-05T07:56:08.042Z,34.93
2023-05-05T07:57:08.073Z,37.31
2023-05-05T07:58:08.098Z,37.08
2023-05-05T07:59:08.022Z,35.28
2023-05-05T08:00:08.236Z,32.44
2023-05-05T08:01:08.013Z,32.29
2023-05-05T08:02:08.041Z,32.37
2023-05-05T08:03:11.287Z,29.21
2023-05-05T08:04:09.075Z,25.00
2023-05-05T08:05:08.405Z,23.92
2023-05-05T08:06:08.033Z,25.00
2023-05-05T08:07:08.052Z,25.52
2023-05-05T08:08:08.036Z,25.00
2023-05-05T08:09:08.049Z,26.08
2023-05-05T08:10:08.982Z,25.48
2023-05-05T08:11:08.009Z,32.92
2023-05-05T08:12:08.032Z,29.97
2023-05-05T08:13:08.003Z,35.64
2023-05-05T08:14:07.992Z,36.18
2023-05-05T08:15:08.493Z,43.16
2023-05-05T08:16:08.023Z,46.62
2023-05-05T08:17:08.044Z,52.52
2023-05-05T08:18:07.969Z,47.43
2023-05-05T08:19:17.546Z,52.61
2023-05-05T08:20:09.038Z,53.11
2023-05-05T08:21:07.946Z,57.62
2023-05-05T08:22:07.977Z,64.96
2023-05-05T08:23:07.986Z,72.77
2023-05-05T08:24:07.919Z,86.59
2023-05-05T08:25:08.100Z,88.36
2023-05-05T08:26:07.903Z,114.93
2023-05-05T08:27:07.930Z,150.57
2023-05-05T08:28:07.947Z,164.06
2023-05-05T08:29:07.917Z,172.28
2023-05-05T08:30:07.879Z,170.45
2023-05-05T08:31:08.051Z,173.71
2023-05-05T08:32:07.848Z,164.99
2023-05-05T08:33:07.889Z,155.85
2023-05-05T08:34:07.868Z,156.52
2023-05-05T08:35:08.302Z,144.52
2023-05-05T08:36:07.873Z,134.74
2023-05-05T08:37:07.869Z,134.32
2023-05-05T08:38:07.889Z,131.23
2023-05-05T08:39:08.192Z,121.71
2023-05-05T08:40:07.823Z,131.34
2023-05-05T08:41:07.789Z,151.87
2023-05-05T08:42:07.824Z,167.18
2023-05-05T08:43:07.830Z,170.77
2023-05-05T08:44:07.978Z,164.00
2023-05-05T08:45:08.285Z,172.78
2023-05-05T08:46:07.836Z,178.28
2023-05-05T08:47:07.905Z,170.42
2023-05-05T08:48:07.792Z,169.24
2023-05-05T08:49:07.736Z,170.91
2023-05-05T08:50:07.747Z,156.10
2023-05-05T08:51:07.717Z,143.50
2023-05-05T08:52:07.730Z,141.45
2023-05-05T08:53:07.704Z,153.18
2023-05-05T08:54:07.761Z,153.40
2023-05-05T08:55:07.908Z,154.45
2023-05-05T08:56:07.810Z,162.24
2023-05-05T08:57:07.820Z,167.92
2023-05-05T08:58:07.754Z,159.46
2023-05-05T08:59:07.755Z,147.49
2023-05-05T09:00:07.839Z,151.42
2023-05-05T09:01:07.853Z,149.64
2023-05-05T09:02:08.016Z,149.46
2023-05-05T09:03:08.074Z,152.72
2023-05-05T09:04:07.900Z,169.92
2023-05-05T09:05:08.108Z,176.93
2023-05-05T09:06:07.873Z,166.12
2023-05-05T09:07:08.021Z,164.35
2023-05-05T09:08:07.947Z,166.83
2023-05-05T09:09:07.952Z,173.54
2023-05-05T09:10:07.942Z,171.04
2023-05-05T09:11:08.594Z,175.60
2023-05-05T09:12:07.973Z,182.93
2023-05-05T09:13:08.064Z,187.88
2023-05-05T09:14:08.033Z,182.95
2023-05-05T09:15:08.241Z,186.70
2023-05-05T09:16:08.040Z,189.82
2023-05-05T09:17:08.195Z,187.17
2023-05-05T09:18:08.217Z,183.80
2023-05-05T09:19:08.594Z,179.07
2023-05-05T09:20:08.071Z,172.37
2023-05-05T09:21:08.082Z,173.52
2023-05-05T09:22:08.193Z,172.97
2023-05-05T09:23:08.180Z,176.05
2023-05-05T09:24:09.255Z,172.49
2023-05-05T09:25:08.436Z,186.46
2023-05-05T09:26:08.171Z,191.99
2023-05-05T09:27:08.229Z,189.03
2023-05-05T09:28:08.245Z,192.88
2023-05-05T09:29:08.220Z,186.25
2023-05-05T09:30:08.502Z,182.11
2023-05-05T09:31:08.418Z,170.87
2023-05-05T09:32:08.501Z,143.78
2023-05-05T09:33:08.321Z,156.53
2023-05-05T09:34:08.310Z,180.21
2023-05-05T09:35:08.436Z,207.24
2023-05-05T09:36:09.063Z,229.23
2023-05-05T09:37:09.035Z,234.17
2023-05-05T09:38:08.397Z,240.58
2023-05-05T09:39:08.367Z,236.36
2023-05-05T09:40:08.399Z,231.76
2023-05-05T09:41:08.594Z,226.09
2023-05-05T09:42:08.471Z,213.48
2023-05-05T09:43:08.531Z,212.16
2023-05-05T09:44:08.557Z,209.73
2023-05-05T09:45:09.155Z,215.22
2023-05-05T09:46:08.622Z,211.01
2023-05-05T09:47:18.483Z,209.67
2023-05-05T09:48:09.569Z,205.27
2023-05-05T09:49:08.551Z,195.83
2023-05-05T09:50:08.754Z,190.99
2023-05-05T09:51:08.536Z,188.12
2023-05-05T09:52:08.550Z,195.00
2023-05-05T09:53:08.664Z,187.33
2023-05-05T09:54:08.601Z,189.27
2023-05-05T09:55:08.489Z,179.31
2023-05-05T09:56:08.500Z,171.56
2023-05-05T09:57:08.517Z,155.81
2023-05-05T09:58:08.665Z,135.15
2023-05-05T09:59:08.780Z,131.91
2023-05-05T10:00:09.713Z,121.57
2023-05-05T10:01:09.583Z,133.58
2023-05-05T10:02:08.677Z,120.12
2023-05-05T10:03:08.860Z,108.54
2023-05-05T10:04:08.954Z,111.19
2023-05-05T10:05:09.026Z,109.18
2023-05-05T10:06:09.047Z,105.16
2023-05-05T10:07:09.090Z,124.69
2023-05-05T10:08:09.016Z,119.57
2023-05-05T10:09:09.162Z,119.51
2023-05-05T10:10:09.441Z,121.57
2023-05-05T10:11:09.332Z,109.28
2023-05-05T10:12:09.423Z,121.22
2023-05-05T10:13:09.483Z,132.40
2023-05-05T10:14:09.462Z,131.47
2023-05-05T10:15:09.540Z,141.44
2023-05-05T10:16:09.610Z,135.02
2023-05-05T10:17:09.556Z,119.10
2023-05-05T10:18:09.813Z,119.00
2023-05-05T10:19:09.762Z,129.62
2023-05-05T10:20:09.884Z,123.82
2023-05-05T10:21:09.808Z,136.57
2023-05-05T10:22:09.992Z,130.80
2023-05-05T10:23:09.941Z,119.80
2023-05-05T10:24:10.203Z,127.85
2023-05-05T10:25:10.015Z,123.02
2023-05-05T10:26:10.103Z,139.40
2023-05-05T10:27:11.564Z,161.60
2023-05-05T10:28:10.602Z,165.32
2023-05-05T10:29:10.292Z,157.81
2023-05-05T10:30:10.534Z,178.57
2023-05-05T10:31:24.501Z,196.88
2023-05-05T10:32:30.211Z,197.20
2023-05-05T10:33:30.147Z,197.35
2023-05-05T10:34:11.457Z,197.21
2023-05-05T10:35:10.528Z,197.38
2023-05-05T10:36:10.398Z,189.33
2023-05-05T10:37:10.390Z,177.57
2023-05-05T10:38:10.405Z,167.88
2023-05-05T10:39:10.325Z,168.25
2023-05-05T10:40:10.765Z,164.85
2023-05-05T10:41:10.316Z,168.00
2023-05-05T10:42:10.306Z,173.30
2023-05-05T10:43:10.514Z,168.15
2023-05-05T10:44:10.308Z,169.44
2023-05-05T10:45:10.547Z,174.21
2023-05-05T10:46:10.394Z,171.28
2023-05-05T10:47:10.302Z,176.02
2023-05-05T10:48:10.363Z,169.19
2023-05-05T10:49:11.758Z,168.27
2023-05-05T10:50:10.680Z,169.83
2023-05-05T10:51:10.246Z,178.51
2023-05-05T10:52:10.342Z,188.43
2023-05-05T10:53:10.248Z,187.93
2023-05-05T10:54:10.383Z,183.03
2023-05-05T10:55:10.243Z,181.26
2023-05-05T10:56:10.207Z,180.29
2023-05-05T10:57:10.221Z,183.24
2023-05-05T10:58:10.218Z,191.62
2023-05-05T10:59:10.203Z,197.12
2023-05-05T11:00:10.430Z,194.12
2023-05-05T11:01:10.211Z,192.20
2023-05-05T11:02:10.217Z,195.58
2023-05-05T11:03:10.309Z,183.32
2023-05-05T11:04:10.211Z,177.78
2023-05-05T11:05:10.192Z,179.54
2023-05-05T11:06:10.241Z,196.10
2023-05-05T11:07:13.813Z,218.87
2023-05-05T11:08:10.198Z,210.55
2023-05-05T11:09:10.194Z,192.89
2023-05-05T11:10:10.392Z,170.86
2023-05-05T11:11:10.203Z,173.91
2023-05-05T11:12:10.144Z,171.07
2023-05-05T11:13:10.215Z,168.55
2023-05-05T11:14:10.316Z,160.98
2023-05-05T11:15:10.103Z,161.32
2023-05-05T11:16:10.150Z,145.48
2023-05-05T11:17:10.128Z,141.77
2023-05-05T11:18:10.106Z,159.61
2023-05-05T11:19:10.083Z,158.51
2023-05-05T11:20:10.284Z,171.72
2023-05-05T11:21:10.176Z,157.62
2023-05-05T11:22:10.247Z,156.55
2023-05-05T11:23:10.304Z,156.76
2023-05-05T11:24:10.364Z,149.89
2023-05-05T11:25:10.390Z,142.41
2023-05-05T11:26:10.559Z,132.68
2023-05-05T11:27:10.527Z,130.07
2023-05-05T11:28:10.609Z,130.98
2023-05-05T11:29:10.632Z,128.49
2023-05-05T11:30:10.876Z,142.71
2023-05-05T11:31:10.822Z,197.24
2023-05-05T11:32:10.820Z,207.94
2023-05-05T11:33:10.865Z,199.44
2023-05-05T11:34:10.879Z,182.84
2023-05-05T11:35:10.969Z,159.52
2023-05-05T11:36:11.041Z,147.53
2023-05-05T11:37:11.080Z,122.25
2023-05-05T11:38:11.154Z,90.66
2023-05-05T11:39:11.179Z,87.40
2023-05-05T11:40:11.232Z,106.96
2023-05-05T11:41:11.284Z,124.77
2023-05-05T11:42:11.395Z,120.74
2023-05-05T11:43:11.418Z,132.63
2023-05-05T11:44:11.504Z,147.52
2023-05-05T11:45:11.511Z,153.56
2023-05-05T11:46:11.563Z,156.75
2023-05-05T11:47:11.619Z,162.92
2023-05-05T11:48:11.750Z,156.05
2023-05-05T11:49:11.731Z,161.59
2023-05-05T11:50:11.742Z,167.92
2023-05-05T11:51:11.812Z,145.54
2023-05-05T11:52:11.815Z,90.58
2023-05-05T11:53:11.848Z,71.33
2023-05-05T11:54:11.824Z,74.86
2023-05-05T11:55:11.894Z,106.95
2023-05-05T11:56:11.874Z,109.69
2023-05-05T11:57:11.863Z,132.65
2023-05-05T11:58:11.894Z,123.68
2023-05-05T11:59:11.893Z,122.73
2023-05-05T12:00:12.041Z,113.27
2023-05-05T12:01:11.964Z,125.03
2023-05-05T12:02:11.994Z,125.61
2023-05-05T12:03:12.104Z,123.33
2023-05-05T12:04:12.272Z,126.42
2023-05-05T12:05:12.126Z,123.01
2023-05-05T12:06:12.171Z,163.03
2023-05-05T12:07:12.180Z,109.85
2023-05-05T12:08:12.252Z,44.40
2023-05-05T12:09:12.283Z,49.05
2023-05-05T12:10:12.334Z,73.41
2023-05-05T12:11:12.344Z,65.42
2023-05-05T12:12:12.362Z,87.94
2023-05-05T12:13:12.438Z,122.85
2023-05-05T12:14:12.508Z,116.11
2023-05-05T12:15:12.543Z,129.49
2023-05-05T12:16:12.697Z,70.04
2023-05-05T12:17:12.660Z,100.53
2023-05-05T12:18:12.771Z,97.77
2023-05-05T12:19:12.736Z,106.46
2023-05-05T12:20:13.096Z,122.16
2023-05-05T12:21:12.795Z,139.06
2023-05-05T12:22:12.879Z,153.09
2023-05-05T12:23:12.921Z,159.13
2023-05-05T12:24:12.942Z,131.17
2023-05-05T12:25:12.960Z,60.50
2023-05-05T12:26:12.989Z,76.51
2023-05-05T12:27:13.002Z,60.57
2023-05-05T12:28:13.071Z,89.83
2023-05-05T12:29:13.115Z,114.25
2023-05-05T12:30:13.108Z,115.29
2023-05-05T12:31:13.288Z,119.34
2023-05-05T12:32:13.235Z,139.07